Latest Weather Observations for Fortescue Dave Forrest

IDW60801

Issued at 4:03 pm WST Monday 25 July 2016 (issued every 30 minutes, with the page automatically refreshed every 10 minutes)

About weather observations | Map of weather stations | Latest weather observations for WA | Other Formats
Station Details ID: 505056 Name: FORTESCUE DAVE FORREST Lat: -22.29 Lon: 119.43 Height: 474.6 m
Data from the previous 72 hours. | See also: Recent months for locations in Western Australia
Date/Time
WST
Temp
°C
App
Temp
°C
Dew
Point
°C
Rel
Hum
%
Delta-T
°C
Wind Press
QNH
hPa
Press
MSL
hPa
Rain since
9am
mm
Dir  Spd
km/h
Gust
km/h
Spd
kts
Gust
kts
25/04:00pm 23.0 18.2 2.5 26 10.0 SE 17 26 9 14 1018.9 1018.2 0.0
25/03:30pm 22.6 17.6 3.7 29 9.4 SE 19 32 10 17 1018.8 1018.1 0.0
25/03:00pm 22.6 18.2 2.7 27 9.7 SE 15 24 8 13 1018.8 1018.1 0.0
25/02:30pm 22.5 17.7 2.6 27 9.7 ESE 17 32 9 17 1018.9 1018.2 0.0
25/02:00pm 22.3 17.8 2.4 27 9.6 SE 15 24 8 13 1019.1 1018.4 0.0
25/01:30pm 21.4 16.8 1.7 27 9.3 ESE 15 24 8 13 1019.4 1018.7 0.0
25/01:00pm 20.7 15.7 1.6 28 9.0 ESE 17 28 9 15 1019.9 1019.2 0.0
25/12:30pm 20.9 15.3 1.2 27 9.2 ESE 20 33 11 18 1020.4 1019.7 0.0
25/12:00pm 20.6 15.1 2.0 29 8.8 ESE 20 30 11 16 1021.2 1020.5 0.0
25/11:30am 19.2 13.8 2.6 33 7.9 ESE 20 30 11 16 1021.7 1021.0 0.0
25/11:00am 19.0 13.7 3.2 35 7.5 ESE 20 33 11 18 1021.9 1021.3 0.0
25/10:30am 17.9 12.5 2.6 36 7.2 SE 20 28 11 15 1022.6 1021.9 0.0
25/10:00am 16.8 11.1 2.8 39 6.5 SE 22 32 12 17 1022.8 1022.1 0.0
25/09:30am 15.9 9.8 3.0 42 6.0 ESE 24 32 13 17 1022.7 1022.0 0.0
25/09:00am 14.7 8.1 2.3 43 5.6 ESE 26 35 14 19 1022.6 1021.9 0.0
25/08:30am 13.7 8.4 2.9 48 4.9 SE 20 30 11 16 1022.7 1022.0 0.0
25/08:00am 13.0 8.4 3.7 53 4.3 SE 17 26 9 14 1022.4 1021.7 0.0
25/07:30am 12.6 8.5 4.3 57 3.9 SE 15 22 8 12 1022.2 1021.6 0.0
25/07:00am 12.4 8.7 4.6 59 3.6 SE 13 19 7 10 1022.0 1021.4 0.0
25/06:30am 12.6 8.5 4.6 58 3.8 SE 15 22 8 12 1021.6 1020.9 0.0
25/06:00am 12.7 9.1 4.9 59 3.7 SE 13 20 7 11 1021.3 1020.6 0.0
25/05:30am 12.9 9.3 5.1 59 3.7 SE 13 19 7 10 1021.0 1020.3 0.0
25/05:00am 13.0 9.4 5.2 59 3.7 SE 13 20 7 11 1020.8 1020.1 0.0
25/04:30am 13.0 9.6 5.7 61 3.5 SE 13 19 7 10 1020.6 1019.9 0.0
25/04:00am 13.1 9.7 6.0 62 3.4 SE 13 20 7 11 1020.8 1020.1 0.0
25/03:30am 13.1 9.4 6.5 64 3.2 SE 15 20 8 11 1020.7 1020.0 0.0
25/03:00am 13.1 9.8 6.5 64 3.2 SSE 13 19 7 10 1020.7 1020.0 0.0
25/02:30am 13.2 10.4 6.8 65 3.2 SE 11 19 6 10 1020.9 1020.2 0.0
25/02:00am 13.5 10.7 6.8 64 3.3 SE 11 19 6 10 1021.2 1020.5 0.0
25/01:30am 13.4 11.0 7.2 66 3.1 SE 9 15 5 8 1021.2 1020.5 0.0
25/01:00am 13.7 10.9 7.0 64 3.3 SE 11 19 6 10 1021.6 1020.9 0.0
25/12:30am 13.7 11.0 7.2 65 3.3 SE 11 17 6 9 1021.6 1020.9 0.0
25/12:00am 13.8 10.7 7.3 65 3.2 SE 13 19 7 10 1021.7 1021.0 0.0
 
Date/Time
WST
Temp
°C
App
Temp
°C
Dew
Point
°C
Rel
Hum
%
Delta-T
°C
Wind Press
QNH
hPa
Press
MSL
hPa
Rain since
9am
mm
Dir  Spd
km/h
Gust
km/h
Spd
kts
Gust
kts
24/11:30pm 13.9 11.2 7.4 65 3.3 SSE 11 19 6 10 1021.9 1021.3 0.0
24/11:00pm 13.9 11.2 7.4 65 3.3 SE 11 17 6 9 1021.9 1021.3 0.0
24/10:30pm 13.7 11.2 8.1 69 2.9 SSE 11 19 6 10 1022.0 1021.4 0.0
24/10:00pm 13.7 10.7 7.9 68 2.9 SSE 13 20 7 11 1022.2 1021.6 0.0
24/09:30pm 13.6 10.5 8.7 72 2.5 SSE 15 20 8 11 1022.2 1021.6 0.0
24/09:00pm 13.7 11.0 9.0 73 2.4 SSE 13 19 7 10 1022.5 1021.8 0.0
24/08:30pm 13.6 11.4 9.5 76 2.1 SSE 11 17 6 9 1022.6 1021.9 0.0
24/08:00pm 14.5 11.7 8.5 67 3.1 SSE 13 19 7 10 1022.4 1021.7 0.0
24/07:30pm 14.7 12.2 8.2 65 3.3 SE 11 19 6 10 1022.1 1021.5 0.0
24/07:00pm 14.8 11.4 7.8 63 3.6 SE 15 20 8 11 1021.8 1021.2 0.0
24/06:30pm 14.6 11.7 8.3 66 3.2 SE 13 19 7 10 1021.4 1020.7 0.0
24/06:00pm 14.8 11.6 8.3 65 3.3 SE 15 26 8 14 1021.1 1020.4 0.0
24/05:30pm 15.9 12.3 6.6 54 4.7 SE 15 20 8 11 1020.8 1020.1 0.0
24/05:00pm 16.1 12.0 6.3 52 4.9 SE 17 22 9 12 1020.8 1020.1 0.0
24/04:30pm 16.2 11.6 6.6 53 4.8 SE 20 33 11 18 1020.6 1019.9 0.0
24/04:00pm 16.1 11.1 6.5 53 4.8 SE 22 33 12 18 1020.3 1019.6 0.0
24/03:30pm 16.1 11.8 7.8 58 4.3 SSE 20 30 11 16 1020.4 1019.7 0.0
24/03:00pm 17.5 12.9 6.4 48 5.6 SSE 20 30 11 16 1020.2 1019.5 0.0
24/02:30pm 18.0 13.4 5.6 44 6.2 SE 19 28 10 15 1020.4 1019.7 0.0
24/02:00pm 18.1 13.8 5.3 43 6.3 SE 17 28 9 15 1020.4 1019.7 0.0
24/01:30pm 18.5 13.7 5.7 43 6.4 SE 20 32 11 17 1020.4 1019.7 0.0
24/01:00pm 18.2 13.4 5.4 43 6.4 SE 20 30 11 16 1020.7 1020.0 0.0
24/12:30pm 17.8 13.2 5.7 45 6.0 SE 19 30 10 16 1021.2 1020.5 0.0
24/12:00pm 17.2 12.6 5.8 47 5.7 SE 19 28 10 15 1021.5 1020.8 0.0
24/11:30am 17.2 11.4 6.1 48 5.6 ESE 26 35 14 19 1021.8 1021.2 0.0
24/11:00am 17.0 12.5 6.8 51 5.2 SE 20 32 11 17 1022.5 1021.8 0.0
24/10:30am 15.8 10.9 6.8 55 4.5 SE 22 32 12 17 1022.9 1022.2 0.0
24/10:00am 16.0 10.2 6.2 52 4.9 ESE 26 37 14 20 1022.8 1022.1 0.0
24/09:30am 15.2 9.4 6.2 55 4.5 ESE 26 33 14 18 1023.0 1022.3 0.0
24/09:00am 14.9 8.8 6.7 58 4.1 ESE 28 41 15 22 1022.8 1022.1 0.0
24/08:30am 14.1 9.4 7.9 66 3.2 SE 22 32 12 17 1022.6 1021.9 0.0
24/08:00am 13.6 9.3 8.0 69 2.8 SE 20 28 11 15 1022.0 1021.4 0.0
24/07:30am 13.2 9.0 8.1 71 2.6 SE 20 30 11 16 1021.6 1020.9 0.0
24/07:00am 12.9 8.9 8.4 74 2.3 SE 19 35 10 19 1021.3 1020.6 0.0
24/06:30am 12.9 8.7 8.4 74 2.3 SE 20 32 11 17 1021.3 1020.6 0.0
24/06:00am 13.0 9.1 8.5 74 2.3 SE 19 28 10 15 1021.0 1020.3 0.0
24/05:30am 13.1 9.0 8.6 74 2.3 SE 20 32 11 17 1020.5 1019.8 0.0
24/05:00am 13.0 8.6 8.9 76 2.1 SE 22 33 12 18 1020.0 1019.4 0.0
24/04:30am 13.2 9.3 9.5 78 1.9 SE 20 30 11 16 1020.0 1019.4 0.0
24/04:00am 13.3 10.4 9.5 78 2.0 SSE 15 24 8 13 1020.3 1019.6 0.0
24/03:30am 13.2 9.9 9.5 78 1.9 SE 17 24 9 13 1019.8 1019.1 0.0
24/03:00am 13.3 10.7 9.4 77 2.0 SSE 13 19 7 10 1020.5 1019.8 0.0
24/02:30am 13.4 10.0 9.3 76 2.1 SE 17 24 9 13 1020.3 1019.6 0.0
24/02:00am 13.5 10.1 9.2 75 2.2 SE 17 26 9 14 1020.0 1019.4 0.0
24/01:30am 13.6 10.2 9.3 75 2.2 SE 17 26 9 14 1019.9 1019.2 0.0
24/01:00am 13.6 10.7 9.6 77 2.1 SE 15 26 8 14 1020.0 1019.4 0.0
24/12:30am 13.6 10.7 9.8 78 2.0 SE 15 20 8 11 1020.3 1019.6 0.0
24/12:00am 13.6 10.4 9.8 78 2.0 SSE 17 26 9 14 1020.6 1019.9 0.0
 
Date/Time
WST
Temp
°C
App
Temp
°C
Dew
Point
°C
Rel
Hum
%
Delta-T
°C
Wind Press
QNH
hPa
Press
MSL
hPa
Rain since
9am
mm
Dir  Spd
km/h
Gust
km/h
Spd
kts
Gust
kts
23/11:30pm 13.6 11.2 10.2 80 1.8 SSE 13 24 7 13 1020.6 1019.9 0.0
23/11:00pm 13.6 10.1 10.2 80 1.8 SSE 19 30 10 16 1020.9 1020.2 0.0
23/10:30pm 14.6 11.4 9.8 73 2.5 SE 17 26 9 14 1020.6 1019.9 0.0
23/10:00pm 15.1 11.4 9.5 69 3.0 SE 19 30 10 16 1019.9 1019.2 0.0
23/09:30pm 15.3 12.4 9.7 69 3.0 SE 15 24 8 13 1020.0 1019.4 0.0
23/09:00pm 15.5 12.6 9.6 68 3.1 SE 15 28 8 15 1020.0 1019.4 0.0
23/08:30pm 15.8 12.5 9.5 66 3.3 SE 17 24 9 13 1020.0 1019.4 0.0
23/08:00pm 16.4 12.6 8.9 61 3.9 SE 19 30 10 16 1019.9 1019.2 0.0
23/07:30pm 17.3 13.0 7.1 51 5.2 SE 19 28 10 15 1019.6 1018.9 0.0
23/07:00pm 17.8 13.4 6.7 48 5.6 SE 19 28 10 15 1019.5 1018.8 0.0
23/06:30pm 18.0 14.0 6.5 47 5.8 SE 17 26 9 14 1019.2 1018.5 0.0
23/06:00pm 18.2 15.0 6.7 47 5.9 SE 13 22 7 12 1018.8 1018.1 0.0
23/05:30pm 18.7 15.0 6.5 45 6.2 SE 15 24 8 13 1018.7 1018.0 0.0
23/05:00pm 19.2 15.9 6.3 43 6.6 SE 13 19 7 10 1018.4 1017.7 0.0
23/04:30pm 19.7 15.9 5.7 40 7.1 SE 15 22 8 12 1018.1 1017.3 0.0
23/04:00pm 20.1 16.0 6.1 40 7.1 SE 17 24 9 13 1018.0 1017.2 0.0
23/03:30pm 20.2 17.0 6.9 42 6.9 SE 13 19 7 10 1018.2 1017.5 0.0
23/03:00pm 19.9 16.4 7.0 43 6.7 SE 15 22 8 12 1018.3 1017.6 0.0
23/02:30pm 19.9 16.4 7.0 43 6.7 SSE 15 20 8 11 1018.2 1017.5 0.0
23/02:00pm 19.8 16.7 7.2 44 6.6 SE 13 20 7 11 1018.0 1017.2 0.0
23/01:30pm 19.5 16.2 6.6 43 6.6 ESE 13 20 7 11 1018.3 1017.6 0.0
23/01:00pm 19.3 15.3 6.8 44 6.4 ESE 17 24 9 13 1018.6 1017.9 0.0
23/12:30pm 18.7 14.8 6.9 46 6.1 ESE 17 24 9 13 1019.1 1018.4 0.0
23/12:00pm 17.7 14.1 6.6 48 5.6 SE 15 22 8 12 1019.7 1019.0 0.0
23/11:30am 16.8 12.3 6.3 50 5.3 SE 19 26 10 14 1020.2 1019.5 0.0
23/11:00am 16.2 11.7 6.1 51 5.0 SE 19 24 10 13 1020.4 1019.7 0.0
23/10:30am 16.5 13.2 6.3 51 5.1 SSE 13 19 7 10 1021.2 1020.5 0.0
23/10:00am 16.3 12.6 6.4 52 4.9 SSE 15 22 8 12 1021.5 1020.8 0.0
23/09:30am 15.8 12.3 7.1 56 4.4 SE 15 20 8 11 1021.4 1020.7 0.0
23/09:00am 15.0 11.5 7.1 59 4.0 SE 15 20 8 11 1021.0 1020.3 0.0
23/08:30am 14.7 11.7 7.7 63 3.6 SE 13 19 7 10 1020.8 1020.1 0.0
23/08:00am 14.8 11.8 7.6 62 3.6 SSE 13 20 7 11 1020.7 1020.0 0.0
23/07:30am 14.8 11.3 7.1 60 3.9 SE 15 20 8 11 1020.0 1019.4 0.0
23/07:00am 14.8 11.2 6.9 59 3.9 SE 15 22 8 12 1020.0 1019.4 0.0
23/06:30am 14.7 11.2 7.0 60 3.9 SE 15 22 8 12 1019.8 1019.1 0.0
23/06:00am 14.7 11.6 7.3 61 3.7 SE 13 20 7 11 1019.8 1019.1 0.0
23/05:30am 14.7 11.7 7.5 62 3.6 SE 13 19 7 10 1019.5 1018.8 0.0
23/05:00am 14.8 11.7 7.4 61 3.7 SE 13 20 7 11 1019.3 1018.6 0.0
23/04:30am 14.8 11.8 7.6 62 3.7 SE 13 19 7 10 1019.2 1018.5 0.0
23/04:00am 14.8 11.8 7.8 63 3.6 SE 13 22 7 12 1019.5 1018.8 0.0
23/03:30am 14.7 12.2 8.0 64 3.4 SSE 11 19 6 10 1019.5 1018.8 0.0
23/03:00am 14.7 11.8 8.0 64 3.4 SE 13 20 7 11 1019.6 1018.9 0.0
23/02:30am 14.8 12.0 8.5 66 3.3 SSE 13 19 7 10 1019.7 1019.0 0.0
23/02:00am 15.0 11.8 8.5 65 3.4 SE 15 22 8 12 1019.5 1018.8 0.0
23/01:30am 15.0 12.2 8.7 66 3.3 SE 13 20 7 11 1019.6 1018.9 0.0
23/01:00am 15.0 11.6 9.1 68 3.1 SE 17 26 9 14 1019.7 1019.0 0.0
23/12:30am 15.3 12.7 9.4 68 3.1 SSE 13 19 7 10 1020.0 1019.4 0.0
23/12:00am 15.3 12.5 10.1 71 2.8 SSE 15 22 8 12 1019.8 1019.1 0.0
 
Date/Time
WST
Temp
°C
App
Temp
°C
Dew
Point
°C
Rel
Hum
%
Delta-T
°C
Wind Press
QNH
hPa
Press
MSL
hPa
Rain since
9am
mm
Dir  Spd
km/h
Gust
km/h
Spd
kts
Gust
kts
22/11:30pm 15.6 13.3 10.4 71 2.8 SSE 13 20 7 11 1020.2 1019.5 0.0
22/11:00pm 15.6 13.2 10.2 70 2.9 SSE 13 19 7 10 1020.2 1019.5 0.0
22/10:30pm 15.7 14.1 10.2 70 3.0 SSE 9 17 5 9 1020.4 1019.7 0.0
22/10:00pm 15.9 13.5 10.2 69 3.1 SSE 13 20 7 11 1020.2 1019.5 0.0
22/09:30pm 16.0 13.6 10.1 68 3.2 SSE 13 20 7 11 1020.2 1019.5 0.0
22/09:00pm 16.1 13.0 10.2 68 3.2 SE 17 24 9 13 1020.0 1019.4 0.0
22/08:30pm 16.2 13.9 10.5 69 3.1 SSE 13 20 7 11 1020.3 1019.6 0.0
22/08:00pm 16.1 13.7 10.0 67 3.3 SSE 13 20 7 11 1020.0 1019.4 0.0
22/07:30pm 16.8 14.6 9.2 61 4.0 SE 11 17 6 9 1019.7 1019.0 0.0
22/07:00pm 16.8 14.2 9.5 62 3.9 ESE 13 19 7 10 1019.3 1018.6 0.0
22/06:30pm 17.7 14.3 7.7 52 5.2 SE 15 22 8 12 1018.9 1018.2 0.0
22/06:00pm 18.4 14.5 6.9 47 5.9 SE 17 28 9 15 1018.7 1018.0 0.0
22/05:30pm 18.7 14.2 6.2 44 6.3 SSE 19 30 10 16 1018.7 1018.0 0.0
22/05:00pm 19.0 14.8 5.8 42 6.6 SSE 17 26 9 14 1018.5 1017.8 0.0
22/04:30pm 19.2 14.5 5.3 40 7.0 SSE 19 32 10 17 1018.3 1017.6 0.0

Other Formats:

Comma delimited format used in spreadsheet applications
http://www.bom.gov.au/fwo/IDW60801/IDW60801.99736.axf

JavaScript Object Notation format (JSON) in row-major order
http://www.bom.gov.au/fwo/IDW60801/IDW60801.99736.json